createdAt,value
2022-08-18T00:00:20.087Z,21.65
2022-08-18T00:05:22.305Z,21.62
2022-08-18T00:10:24.223Z,21.58
2022-08-18T00:15:26.700Z,21.51
2022-08-18T00:20:28.388Z,21.39
2022-08-18T00:25:30.092Z,21.30
2022-08-18T00:30:32.364Z,21.25
2022-08-18T00:35:37.850Z,21.16
2022-08-18T00:40:44.684Z,20.99
2022-08-18T00:45:46.787Z,20.90
2022-08-18T00:51:00.957Z,20.83
2022-08-18T00:56:11.466Z,20.72
2022-08-18T01:01:15.467Z,20.63
2022-08-18T01:06:38.689Z,20.58
2022-08-18T01:11:41.527Z,20.59
2022-08-18T01:17:02.546Z,20.56
2022-08-18T01:22:44.805Z,20.41
2022-08-18T01:27:47.119Z,20.49
2022-08-18T01:32:51.072Z,20.47
2022-08-18T01:37:55.378Z,20.49
2022-08-18T01:42:57.115Z,20.45
2022-08-18T01:47:59.867Z,20.43
2022-08-18T01:53:05.623Z,20.42
2022-08-18T01:58:08.131Z,20.38
2022-08-18T02:03:12.891Z,20.22
2022-08-18T02:08:15.551Z,20.08
2022-08-18T02:13:18.399Z,20.06
2022-08-18T02:18:30.392Z,20.06
2022-08-18T02:23:52.875Z,20.12
2022-08-18T02:28:55.681Z,20.22
2022-08-18T02:33:57.502Z,20.18
2022-08-18T02:39:00.051Z,20.13
2022-08-18T02:44:02.098Z,20.12
2022-08-18T02:49:06.076Z,20.10
2022-08-18T02:54:11.177Z,20.04
2022-08-18T02:59:16.910Z,20.06
2022-08-18T03:04:29.805Z,20.11
2022-08-18T03:09:33.472Z,20.06
2022-08-18T03:14:36.163Z,20.17
2022-08-18T03:19:38.625Z,20.30
2022-08-18T03:24:40.724Z,20.40
2022-08-18T03:29:42.420Z,20.32
2022-08-18T03:34:44.172Z,20.07
2022-08-18T03:39:45.995Z,20.13
2022-08-18T03:44:47.811Z,20.15
2022-08-18T03:49:49.643Z,20.14
2022-08-18T03:54:54.853Z,20.15
2022-08-18T03:59:56.569Z,20.20
2022-08-18T04:04:58.245Z,20.16
2022-08-18T04:09:59.968Z,20.00
2022-08-18T04:15:01.708Z,20.00
2022-08-18T04:20:04.395Z,20.10
2022-08-18T04:25:09.457Z,20.17
2022-08-18T04:30:11.590Z,20.12
2022-08-18T04:35:14.251Z,20.04
2022-08-18T04:40:17.001Z,20.06
2022-08-18T04:45:20.903Z,20.13
2022-08-18T04:50:24.659Z,20.24
2022-08-18T04:55:29.389Z,20.16
2022-08-18T05:00:31.099Z,20.07
2022-08-18T05:05:32.767Z,20.19
2022-08-18T05:10:35.684Z,20.31
2022-08-18T05:15:59.297Z,20.32
2022-08-18T05:21:00.424Z,20.35
2022-08-18T05:26:04.101Z,20.42
2022-08-18T05:31:13.679Z,20.59
2022-08-18T05:36:15.590Z,20.71
2022-08-18T05:41:26.059Z,20.82
2022-08-18T05:46:55.703Z,20.86
2022-08-18T05:52:13.085Z,20.94
2022-08-18T05:57:21.807Z,20.86
2022-08-18T06:02:37.291Z,20.80
2022-08-18T06:07:42.053Z,20.91
2022-08-18T06:12:51.307Z,21.07
2022-08-18T06:18:31.189Z,21.17
2022-08-18T06:23:42.453Z,21.30
2022-08-18T06:29:07.366Z,21.48
2022-08-18T06:34:30.275Z,21.58
2022-08-18T06:39:36.554Z,21.85
2022-08-18T06:44:53.444Z,22.07
2022-08-18T06:50:06.165Z,22.05
2022-08-18T06:55:17.027Z,22.08
2022-08-18T07:00:18.664Z,22.16
2022-08-18T07:05:26.946Z,22.10
2022-08-18T07:10:35.259Z,22.04
2022-08-18T07:15:37.089Z,22.04
2022-08-18T07:20:54.671Z,21.98
2022-08-18T07:26:08.925Z,21.91
2022-08-18T07:31:43.124Z,21.80
2022-08-18T07:37:03.373Z,21.94
2022-08-18T07:42:37.350Z,21.84
2022-08-18T07:47:50.143Z,21.74
2022-08-18T07:53:12.646Z,21.76
2022-08-18T07:58:26.950Z,21.71
2022-08-18T08:03:59.010Z,21.78
2022-08-18T08:09:22.596Z,21.82
2022-08-18T08:14:26.787Z,21.94
2022-08-18T08:19:59.607Z,22.13
2022-08-18T08:25:03.841Z,22.26
2022-08-18T08:30:07.843Z,22.20
2022-08-18T08:35:48.436Z,22.06
2022-08-18T08:40:53.284Z,22.27
2022-08-18T08:46:03.899Z,22.35
2022-08-18T08:51:21.738Z,22.55
2022-08-18T08:56:29.504Z,22.83
2022-08-18T09:01:41.952Z,23.12
2022-08-18T09:06:52.730Z,23.43
2022-08-18T09:12:36.597Z,23.73
2022-08-18T09:18:07.861Z,23.88
2022-08-18T09:23:18.273Z,24.03
2022-08-18T09:28:28.831Z,24.14
2022-08-18T09:33:45.833Z,24.47
2022-08-18T09:39:12.059Z,24.33
2022-08-18T09:44:42.920Z,24.63
2022-08-18T09:49:53.157Z,24.85
2022-08-18T09:55:06.063Z,24.85
2022-08-18T10:00:12.824Z,24.94
2022-08-18T10:05:17.306Z,25.15
2022-08-18T10:11:02.464Z,25.23
2022-08-18T10:16:22.874Z,25.45
2022-08-18T10:32:15.411Z,25.96
2022-08-18T10:37:28.895Z,25.60
2022-08-18T10:43:26.965Z,24.96
2022-08-18T10:48:33.149Z,24.59
2022-08-18T10:53:44.386Z,24.40
2022-08-18T10:59:16.114Z,24.25
2022-08-18T11:04:47.521Z,24.35
2022-08-18T11:10:29.396Z,24.43
2022-08-18T11:16:00.757Z,24.50
2022-08-18T11:21:24.770Z,24.66
2022-08-18T11:26:30.365Z,24.69
2022-08-18T11:31:32.086Z,24.50
2022-08-18T11:36:34.609Z,24.53
2022-08-18T11:41:48.507Z,24.58
2022-08-18T11:47:16.244Z,24.38
2022-08-18T11:52:34.450Z,23.74
2022-08-18T11:57:49.381Z,23.90
2022-08-18T12:03:02.297Z,23.90
2022-08-18T12:08:07.670Z,24.59
2022-08-18T12:13:25.235Z,25.01
2022-08-18T12:18:29.837Z,25.12
2022-08-18T12:23:38.444Z,25.20
2022-08-18T12:28:46.841Z,25.20
2022-08-18T12:34:01.085Z,25.71
2022-08-18T12:39:04.201Z,26.10
2022-08-18T12:44:09.978Z,26.46
2022-08-18T12:49:19.690Z,26.65
2022-08-18T12:54:22.147Z,26.59
2022-08-18T12:59:26.991Z,26.61
2022-08-18T13:04:34.188Z,26.25
2022-08-18T13:09:53.296Z,26.76
2022-08-18T13:14:56.056Z,26.76
2022-08-18T13:20:00.483Z,26.38
2022-08-18T13:25:05.368Z,26.22
2022-08-18T13:30:29.465Z,26.46
2022-08-18T13:35:38.072Z,26.43
2022-08-18T13:40:46.926Z,26.93
2022-08-18T13:45:53.298Z,26.88
2022-08-18T13:50:59.996Z,26.87
2022-08-18T13:56:03.871Z,27.15
2022-08-18T14:01:42.173Z,27.22
2022-08-18T14:06:30.022Z,27.08
2022-08-18T14:11:34.303Z,26.90
2022-08-18T14:16:37.382Z,26.98
2022-08-18T14:22:05.432Z,26.69
2022-08-18T14:27:07.703Z,26.10
2022-08-18T14:32:17.870Z,26.15
2022-08-18T14:37:23.681Z,26.19
2022-08-18T14:42:41.080Z,26.21
2022-08-18T14:47:43.756Z,26.44
2022-08-18T14:52:50.084Z,26.54
2022-08-18T14:57:53.413Z,26.62
2022-08-18T15:02:59.595Z,26.85
2022-08-18T15:08:03.954Z,27.02
2022-08-18T15:13:05.768Z,26.79
2022-08-18T15:18:08.180Z,26.80
2022-08-18T15:23:31.104Z,27.03
2022-08-18T15:28:33.050Z,27.11
2022-08-18T15:33:36.176Z,27.20
2022-08-18T15:38:38.494Z,27.27
2022-08-18T15:43:45.945Z,26.91
2022-08-18T15:48:48.144Z,26.75
2022-08-18T15:53:49.989Z,26.61
2022-08-18T15:58:52.651Z,26.64
2022-08-18T16:03:55.392Z,26.35
2022-08-18T16:08:57.218Z,26.39
2022-08-18T16:13:59.216Z,26.46
2022-08-18T16:19:02.013Z,26.66
2022-08-18T16:24:04.067Z,26.52
2022-08-18T16:29:05.767Z,26.33
2022-08-18T16:34:07.435Z,26.35
2022-08-18T16:39:09.096Z,26.45
2022-08-18T16:44:10.908Z,26.39
2022-08-18T16:49:12.572Z,26.20
2022-08-18T16:54:16.417Z,26.02
2022-08-18T16:59:36.900Z,26.01
2022-08-18T17:04:38.610Z,25.97
2022-08-18T17:09:40.344Z,25.87
2022-08-18T17:14:42.062Z,25.77
2022-08-18T17:19:45.668Z,25.70
2022-08-18T17:24:49.678Z,25.69
2022-08-18T17:30:30.791Z,25.32
2022-08-18T17:35:37.491Z,24.87
2022-08-18T17:40:48.330Z,25.15
2022-08-18T17:46:05.502Z,25.10
2022-08-18T17:51:31.999Z,24.96
2022-08-18T17:56:42.493Z,24.91
2022-08-18T18:01:44.215Z,24.82
2022-08-18T18:06:48.253Z,24.71
2022-08-18T18:11:51.212Z,24.61
2022-08-18T18:17:12.713Z,24.50
2022-08-18T18:22:28.407Z,24.36
2022-08-18T18:27:40.736Z,24.39
2022-08-18T18:32:49.051Z,24.35
2022-08-18T18:38:02.620Z,24.33
2022-08-18T18:43:25.002Z,24.21
2022-08-18T18:48:48.058Z,24.27
2022-08-18T18:54:06.374Z,24.22
2022-08-18T18:59:35.237Z,24.15
2022-08-18T19:04:43.848Z,24.06
2022-08-18T19:10:00.128Z,24.07
2022-08-18T19:15:14.894Z,24.04
2022-08-18T19:20:25.307Z,24.07
2022-08-18T19:25:28.623Z,24.01
2022-08-18T19:30:33.139Z,23.96
2022-08-18T19:35:50.293Z,23.94
2022-08-18T19:41:31.852Z,23.83
2022-08-18T19:46:41.099Z,23.84
2022-08-18T19:51:44.619Z,23.76
2022-08-18T19:56:58.287Z,23.65
2022-08-18T20:02:18.769Z,23.56
2022-08-18T20:07:55.876Z,23.51
2022-08-18T20:13:39.240Z,23.32
2022-08-18T20:18:49.129Z,23.34
2022-08-18T20:24:23.852Z,23.34
2022-08-18T20:29:37.736Z,23.36
2022-08-18T20:34:50.651Z,23.32
2022-08-18T20:39:55.078Z,23.36
2022-08-18T20:45:20.861Z,23.31
2022-08-18T20:50:44.077Z,23.30
2022-08-18T20:56:31.348Z,23.17
2022-08-18T21:01:32.142Z,23.16
2022-08-18T21:06:40.469Z,23.12
2022-08-18T21:11:45.569Z,22.72
2022-08-18T21:16:47.467Z,23.02
2022-08-18T21:22:04.031Z,23.00
2022-08-18T21:27:19.491Z,22.94
2022-08-18T21:32:31.627Z,22.83
2022-08-18T21:37:36.389Z,22.80
2022-08-18T21:42:45.701Z,22.67
2022-08-18T21:48:02.346Z,22.58
2022-08-18T21:53:16.131Z,22.62
2022-08-18T21:58:37.454Z,22.47
2022-08-18T22:03:54.846Z,22.36
2022-08-18T22:08:56.464Z,22.25
2022-08-18T22:14:01.991Z,22.14
2022-08-18T22:19:10.272Z,22.07
2022-08-18T22:24:21.855Z,21.87
2022-08-18T22:29:33.439Z,21.73
2022-08-18T22:34:36.032Z,21.72
2022-08-18T22:39:55.585Z,21.65
2022-08-18T22:45:02.733Z,21.62
2022-08-18T22:50:06.808Z,21.50
2022-08-18T22:55:14.007Z,21.51
2022-08-18T23:00:19.158Z,21.45
2022-08-18T23:05:21.323Z,21.31
2022-08-18T23:10:23.046Z,21.32
2022-08-18T23:15:42.813Z,21.26
2022-08-18T23:20:48.011Z,21.32
2022-08-18T23:25:50.444Z,21.32
2022-08-18T23:30:52.946Z,21.31
2022-08-18T23:35:54.761Z,21.34
2022-08-18T23:40:57.438Z,21.21
2022-08-18T23:45:59.103Z,21.13
2022-08-18T23:51:02.990Z,21.17
2022-08-18T23:56:06.197Z,21.27
